createdAt,value
2022-11-15T00:02:55.324Z,7.00
2022-11-15T00:08:02.473Z,7.00
2022-11-15T00:13:14.594Z,7.10
2022-11-15T00:18:22.493Z,7.00
2022-11-15T00:23:29.697Z,7.10
2022-11-15T00:28:39.592Z,7.10
2022-11-15T00:33:47.495Z,7.30
2022-11-15T00:38:54.596Z,7.20
2022-11-15T00:44:01.360Z,7.20
2022-11-15T00:49:08.558Z,7.20
2022-11-15T00:54:15.397Z,7.20
2022-11-15T00:59:22.434Z,7.30
2022-11-15T01:04:29.277Z,7.30
2022-11-15T01:09:36.362Z,7.20
2022-11-15T01:14:46.749Z,7.10
2022-11-15T01:19:54.186Z,7.00
2022-11-15T01:25:01.050Z,7.20
2022-11-15T01:30:09.531Z,7.20
2022-11-15T01:35:16.302Z,7.30
2022-11-15T01:40:23.076Z,7.20
2022-11-15T01:45:30.334Z,7.10
2022-11-15T01:50:37.210Z,7.20
2022-11-15T01:55:47.205Z,7.10
2022-11-15T02:00:54.909Z,6.80
2022-11-15T02:06:02.575Z,7.00
2022-11-15T02:11:11.631Z,7.10
2022-11-15T02:16:31.414Z,7.00
2022-11-15T02:21:45.575Z,7.00
2022-11-15T02:27:17.525Z,7.00
2022-11-15T02:32:40.445Z,7.10
2022-11-15T02:37:59.667Z,7.10
2022-11-15T02:43:33.862Z,7.00
2022-11-15T02:48:40.925Z,6.90
2022-11-15T02:53:47.646Z,6.70
2022-11-15T02:59:30.495Z,6.80
2022-11-15T03:05:01.273Z,6.80
2022-11-15T03:10:15.007Z,6.70
2022-11-15T03:15:26.379Z,6.90
2022-11-15T03:20:34.262Z,7.00
2022-11-15T03:25:44.293Z,7.00
2022-11-15T03:30:52.924Z,6.90
2022-11-15T03:35:59.776Z,6.80
2022-11-15T03:41:25.833Z,6.80
2022-11-15T03:46:39.687Z,6.90
2022-11-15T03:51:49.041Z,6.90
2022-11-15T03:56:54.827Z,6.80
2022-11-15T04:02:01.649Z,6.90
2022-11-15T04:07:08.580Z,6.90
2022-11-15T04:12:17.081Z,7.00
2022-11-15T04:17:25.602Z,7.00
2022-11-15T04:22:50.210Z,7.10
2022-11-15T04:27:58.806Z,7.20
2022-11-15T04:33:05.603Z,7.20
2022-11-15T04:38:13.770Z,7.20
2022-11-15T04:43:20.588Z,7.20
2022-11-15T04:48:27.281Z,7.20
2022-11-15T04:53:35.484Z,7.30
2022-11-15T04:58:44.322Z,7.30
2022-11-15T05:04:08.675Z,7.20
2022-11-15T05:09:15.205Z,7.30
2022-11-15T05:14:24.102Z,7.20
2022-11-15T05:19:31.170Z,7.20
2022-11-15T05:24:40.975Z,7.00
2022-11-15T05:29:47.857Z,7.00
2022-11-15T05:34:55.744Z,6.90
2022-11-15T05:40:06.364Z,7.00
2022-11-15T05:45:13.163Z,6.90
2022-11-15T05:50:23.469Z,6.80
2022-11-15T05:55:30.336Z,6.90
2022-11-15T06:00:37.318Z,6.80
2022-11-15T06:05:44.260Z,6.80
2022-11-15T06:10:52.329Z,6.90
2022-11-15T06:16:01.925Z,7.00
2022-11-15T06:21:09.010Z,7.10
2022-11-15T06:26:15.644Z,7.20
2022-11-15T06:31:22.386Z,7.20
2022-11-15T06:36:30.650Z,7.30
2022-11-15T06:41:39.860Z,7.20
2022-11-15T06:46:57.939Z,7.20
2022-11-15T06:52:04.818Z,7.20
2022-11-15T06:57:11.690Z,7.20
2022-11-15T07:02:20.066Z,7.10
2022-11-15T07:07:27.244Z,7.20
2022-11-15T07:12:34.376Z,7.00
2022-11-15T07:17:41.383Z,6.80
2022-11-15T07:22:51.490Z,6.80
2022-11-15T07:28:00.531Z,6.70
2022-11-15T07:33:08.958Z,6.90
2022-11-15T07:38:17.392Z,6.80
2022-11-15T07:43:24.584Z,6.80
2022-11-15T07:48:42.733Z,6.90
2022-11-15T07:53:41.420Z,7.00
2022-11-15T07:58:49.930Z,7.10
2022-11-15T08:03:56.609Z,7.00
2022-11-15T08:09:05.483Z,7.10
2022-11-15T08:14:12.424Z,7.30
2022-11-15T08:19:23.735Z,7.30
2022-11-15T08:24:30.503Z,7.40
2022-11-15T08:29:37.292Z,7.50
2022-11-15T08:34:44.186Z,7.80
2022-11-15T08:39:52.688Z,7.80
2022-11-15T08:44:59.553Z,8.10
2022-11-15T08:50:06.991Z,8.10
2022-11-15T08:55:13.703Z,8.00
2022-11-15T09:00:21.448Z,7.90
2022-11-15T09:05:28.967Z,7.90
2022-11-15T09:10:35.776Z,8.10
2022-11-15T09:15:46.835Z,8.00
2022-11-15T09:20:55.901Z,8.20
2022-11-15T09:26:06.171Z,8.30
2022-11-15T09:31:18.006Z,8.50
2022-11-15T09:36:25.019Z,8.40
2022-11-15T09:42:02.625Z,8.50
2022-11-15T09:47:36.379Z,8.50
2022-11-15T09:52:46.854Z,8.50
2022-11-15T09:58:31.758Z,8.60
2022-11-15T10:03:42.782Z,8.70
2022-11-15T10:09:05.564Z,8.90
2022-11-15T10:14:19.616Z,9.00
2022-11-15T10:19:28.204Z,8.90
2022-11-15T10:24:39.309Z,8.90
2022-11-15T10:29:52.358Z,8.80
2022-11-15T10:35:00.273Z,8.80
2022-11-15T10:40:22.898Z,8.70
2022-11-15T10:45:33.714Z,8.70
2022-11-15T10:50:42.828Z,8.60
2022-11-15T10:55:56.745Z,8.80
2022-11-15T11:01:20.243Z,8.80
2022-11-15T11:06:31.075Z,9.00
2022-11-15T11:11:53.627Z,9.10
2022-11-15T11:17:33.503Z,8.90
2022-11-15T11:23:22.366Z,9.00
2022-11-15T11:28:59.265Z,9.10
2022-11-15T11:34:41.929Z,9.30
2022-11-15T11:40:35.328Z,9.20
2022-11-15T11:46:01.618Z,8.90
2022-11-15T11:51:27.381Z,9.10
2022-11-15T11:56:37.700Z,9.00
2022-11-15T12:01:48.980Z,9.10
2022-11-15T12:07:12.710Z,9.10
2022-11-15T12:12:29.776Z,9.00
2022-11-15T12:17:37.050Z,9.00
2022-11-15T12:23:06.286Z,8.90
2022-11-15T12:28:33.887Z,9.10
2022-11-15T12:33:51.955Z,8.90
2022-11-15T12:39:10.498Z,9.00
2022-11-15T12:44:37.226Z,8.60
2022-11-15T12:49:48.434Z,8.70
2022-11-15T12:55:01.908Z,8.70
2022-11-15T13:00:37.225Z,8.50
2022-11-15T13:05:50.225Z,8.60
2022-11-15T13:10:57.262Z,8.70
2022-11-15T13:16:05.277Z,8.60
2022-11-15T13:21:44.975Z,8.50
2022-11-15T13:26:54.740Z,8.30
2022-11-15T13:32:02.052Z,8.30
2022-11-15T13:37:28.531Z,8.30
2022-11-15T13:42:35.473Z,8.40
2022-11-15T13:47:42.608Z,8.30
2022-11-15T13:52:51.210Z,8.20
2022-11-15T13:58:03.014Z,8.20
2022-11-15T14:03:31.770Z,8.10
2022-11-15T14:08:41.002Z,7.70
2022-11-15T14:14:14.170Z,7.80
2022-11-15T14:19:30.918Z,7.80
2022-11-15T14:24:40.050Z,7.80
2022-11-15T14:29:50.080Z,7.80
2022-11-15T14:35:05.955Z,7.70
2022-11-15T14:40:19.988Z,7.60
2022-11-15T14:45:25.500Z,7.70
2022-11-15T14:50:32.720Z,7.60
2022-11-15T14:55:40.029Z,7.60
2022-11-15T15:00:47.540Z,7.70
2022-11-15T15:05:54.404Z,7.70
2022-11-15T15:11:06.046Z,7.70
2022-11-15T15:16:12.017Z,7.70
2022-11-15T15:21:36.752Z,7.60
2022-11-15T15:26:42.247Z,7.50
2022-11-15T15:31:50.476Z,7.40
2022-11-15T15:37:26.732Z,7.40
2022-11-15T15:42:34.742Z,7.30
2022-11-15T15:47:42.147Z,7.30
2022-11-15T15:52:52.360Z,7.40
2022-11-15T15:57:59.315Z,7.40
2022-11-15T16:03:07.518Z,7.30
2022-11-15T16:08:28.566Z,7.30
2022-11-15T16:13:38.000Z,7.30
2022-11-15T16:18:45.125Z,7.10
2022-11-15T16:23:52.757Z,7.10
2022-11-15T16:29:01.266Z,7.10
2022-11-15T16:34:08.410Z,7.20
2022-11-15T16:39:17.785Z,7.20
2022-11-15T16:44:28.670Z,7.10
2022-11-15T16:49:34.152Z,6.90
2022-11-15T16:54:42.735Z,7.10
2022-11-15T16:59:49.989Z,7.20
2022-11-15T17:04:56.828Z,7.10
2022-11-15T17:10:07.729Z,7.30
2022-11-15T17:15:15.735Z,7.20
2022-11-15T17:20:25.864Z,7.20
2022-11-15T17:25:32.919Z,7.10
2022-11-15T17:30:44.224Z,7.20
2022-11-15T17:35:58.361Z,7.20
2022-11-15T17:41:17.195Z,7.20
2022-11-15T17:46:23.987Z,7.20
2022-11-15T17:51:30.775Z,7.20
2022-11-15T17:56:41.250Z,7.10
2022-11-15T18:01:48.318Z,7.10
2022-11-15T18:06:55.781Z,7.10
2022-11-15T18:12:02.571Z,7.10
2022-11-15T18:17:10.816Z,7.10
2022-11-15T18:22:20.985Z,7.20
2022-11-15T18:27:27.683Z,7.10
2022-11-15T18:32:34.419Z,7.10
2022-11-15T18:37:41.310Z,7.10
2022-11-15T18:42:48.055Z,7.20
2022-11-15T18:47:55.048Z,7.20
2022-11-15T18:53:03.074Z,7.10
2022-11-15T18:58:13.572Z,7.00
2022-11-15T19:03:23.564Z,6.90
2022-11-15T19:08:34.273Z,7.00
2022-11-15T19:13:39.186Z,7.00
2022-11-15T19:18:46.199Z,6.90
2022-11-15T19:23:54.528Z,6.90
2022-11-15T19:29:03.379Z,6.90
2022-11-15T19:34:10.870Z,7.00
2022-11-15T19:39:18.805Z,6.90
2022-11-15T19:44:27.595Z,6.90
2022-11-15T19:49:34.527Z,7.00
2022-11-15T19:54:41.306Z,6.90
2022-11-15T19:59:48.449Z,7.00
2022-11-15T20:04:57.615Z,6.90
2022-11-15T20:10:04.520Z,6.80
2022-11-15T20:15:13.539Z,6.90
2022-11-15T20:20:20.759Z,6.80
2022-11-15T20:25:27.623Z,6.90
2022-11-15T20:30:36.207Z,6.90
2022-11-15T20:35:44.367Z,6.90
2022-11-15T20:40:57.426Z,6.90
2022-11-15T20:46:01.326Z,7.00
2022-11-15T20:51:16.767Z,7.00
2022-11-15T20:56:24.394Z,6.80
2022-11-15T21:01:32.260Z,6.90
2022-11-15T21:06:41.413Z,6.90
2022-11-15T21:12:05.243Z,6.80
2022-11-15T21:17:12.027Z,6.80
2022-11-15T21:22:18.763Z,6.70
2022-11-15T21:27:25.405Z,6.70
2022-11-15T21:32:32.985Z,6.80
2022-11-15T21:37:39.861Z,6.80
2022-11-15T21:42:48.300Z,6.70
2022-11-15T21:47:55.017Z,6.70
2022-11-15T21:53:02.864Z,6.70
2022-11-15T21:58:12.664Z,6.70
2022-11-15T22:03:22.355Z,6.70
2022-11-15T22:08:32.932Z,6.70
2022-11-15T22:13:41.650Z,6.70
2022-11-15T22:18:48.892Z,6.70
2022-11-15T22:24:00.008Z,6.70
2022-11-15T22:29:10.042Z,6.70
2022-11-15T22:34:18.358Z,6.50
2022-11-15T22:39:25.228Z,6.40
2022-11-15T22:44:37.063Z,6.60
2022-11-15T22:49:42.272Z,6.60
2022-11-15T22:54:49.496Z,6.60
2022-11-15T22:59:56.660Z,6.70
2022-11-15T23:10:17.642Z,6.40
2022-11-15T23:15:28.346Z,6.40
2022-11-15T23:20:43.146Z,6.40
2022-11-15T23:25:41.479Z,6.50
2022-11-15T23:31:05.789Z,6.40
2022-11-15T23:36:12.856Z,6.50
2022-11-15T23:41:19.695Z,6.30
2022-11-15T23:46:26.813Z,6.30
2022-11-15T23:51:33.617Z,6.40
2022-11-15T23:56:41.614Z,6.20
